Campanya meteocatpedra

Dades de l'estació automàtica Alcarràs

?
?
Resum diari 20:00 TU
Dades diàries de l'estació meteorològica
Temperatura mitjana 18.4 °C
Temperatura màxima 28.0 °C 14:50 TU
Temperatura mínima 9.1 °C 5:32 TU
Humitat relativa mitjana 68%
Precipitació acumulada 0.0 mm
Ratxa màxima del vent (2 m) 15.8 km/h - 35º 14:58 TU

El tram horari està expressat en Temps Universal (TU). Cal sumar una hora en horari d'hivern i dues en horari d'estiu per passar a l'hora oficial.

Alcarràs

Metadades estació meteorol´gica
Municipi Alcarràs
Comarca Segrià
Altitud 122 m
Data alta 31.07.2013
Estat actual Operativa
Dades de període
Període
TU
TM
°C
TX
°C
TN
°C
HRM
%
PPT
mm
VVM (2 m)
km/h
DVM (2 m)
graus
VVX (2 m)
km/h
00:00 - 00:30 11.3 11.7 11.1 100 0.0 0.4 21 2.2
00:30 - 01:00 10.7 11.1 10.5 100 0.0 0.0 17 1.1
01:00 - 01:30 10.5 10.8 10.3 100 0.0 0.4 11 1.8
01:30 - 02:00 10.4 10.6 10.3 100 0.0 0.4 11 2.5
02:00 - 02:30 10.8 11.3 10.6 100 0.0 0.0 1 1.4
02:30 - 03:00 11.2 11.3 11.1 100 0.0 0.0 312 0.7
03:00 - 03:30 10.9 11.1 10.8 100 0.0 0.0 182 1.1
03:30 - 04:00 10.5 10.7 10.3 100 0.0 0.0 180 0.7
04:00 - 04:30 10.1 10.6 9.7 100 0.0 0.4 4 2.5
04:30 - 05:00 9.6 9.8 9.3 100 0.0 0.4 353 1.4
05:00 - 05:30 9.3 9.6 9.1 100 0.0 0.0 18 1.8
05:30 - 06:00 9.6 10.2 9.1 100 0.0 0.4 78 2.2
06:00 - 06:30 10.8 11.5 10.3 100 0.0 0.0 0 0.0
06:30 - 07:00 12.4 13.3 11.5 99 0.0 0.4 253 2.5
07:00 - 07:30 14.0 14.7 13.3 92 0.0 1.4 260 4.0
07:30 - 08:00 15.4 16.8 14.8 86 0.0 1.1 246 4.7
08:00 - 08:30 17.0 17.5 16.2 79 0.0 1.8 36 5.4
08:30 - 09:00 18.1 18.6 17.5 73 0.0 1.8 164 7.2
09:00 - 09:30 19.4 20.2 18.5 68 0.0 1.8 169 5.8
09:30 - 10:00 20.5 21.0 19.8 64 0.0 1.4 339 7.2
10:00 - 10:30 21.5 21.9 21.1 60 0.0 2.9 193 7.9
10:30 - 11:00 22.9 23.7 22.1 56 0.0 3.6 72 7.9
11:00 - 11:30 23.9 24.3 23.2 49 0.0 3.2 176 7.6
11:30 - 12:00 25.0 25.8 24.3 45 0.0 2.5 268 9.4
12:00 - 12:30 25.6 26.2 25.1 42 0.0 2.9 20 9.4
12:30 - 13:00 26.0 26.3 25.4 39 0.0 4.0 46 13.3
13:00 - 13:30 26.3 26.8 25.9 37 0.0 4.0 19 10.1
13:30 - 14:00 26.9 27.3 26.1 37 0.0 3.2 73 9.0
14:00 - 14:30 27.1 27.8 26.9 36 0.0 4.3 29 10.8
14:30 - 15:00 27.6 28.0 27.3 35 0.0 3.2 49 15.8
15:00 - 15:30 27.5 27.8 27.3 36 0.0 4.3 56 11.5
15:30 - 16:00 27.6 27.8 27.5 35 0.0 3.2 63 9.0
16:00 - 16:30 27.7 28.0 26.7 35 0.0 2.5 141 13.0
16:30 - 17:00 26.0 26.6 25.6 35 0.0 4.0 195 10.4
17:00 - 17:30 25.0 25.6 24.5 34 0.0 4.7 197 13.7
17:30 - 18:00 24.0 24.5 23.4 37 0.0 2.2 207 9.0
18:00 - 18:30 22.5 23.4 21.4 44 0.0 0.4 251 4.7
18:30 - 19:00 19.6 21.1 18.5 55 0.0 0.0 326 2.2
19:00 - 19:30 18.4 19.1 18.1 57 0.0 0.7 305 3.6
19:30 - 20:00 17.2 18.1 15.6 62 0.0 0.7 357 6.5
20:00 - 20:30 15.2 15.6 14.6 73 0.0 0.4 41 2.5
20:30 - 21:00 (s/d) (s/d) (s/d) (s/d) (s/d) (s/d) (s/d) (s/d)

Les dades en taronja només han passat un control de qualitat automàtic. Resta pendent la seva validació definitiva.